To NAV CANADA Home Page Login to a new session Search on AWWS site Disclaimer Vers la page française équivalente Tips FAQ What's new on the site To the Forecasts and Observations / NOTAM section To "File a Flight Plan" website Publications and other links Update of the User's profile FIC Telephone Numbers My Weather Data Folder Route Weather Data Regional Weather Data Local Weather Data To the Forecasts and Observations / NOTAM section
Request Generated 03/19/2019 at 23:02:57 UTC . Weather information available at that time is displayed.

METAR/TAF

If you find any discrepancies between the coded METAR/TAF and the plain language METAR/TAF please use the coded METAR/TAF. LWIS bulletins are not decoded in plain language.

CALGARY/SPRINGBANK/AB    (show WxCam)

METAR CYBW 192300Z AUTO 18005KT 9SM CLR 14/M01 A3017 RMK SLP248 DENSITY ALT 440 T=
METAR
LOCATION
CYBW - CALGARY/SPRINGBANK/AB
DATE - TIME
19 MARCH 2019 - 2300 UTC
WIND
180 TRUE @ 5  KNOTS
VISIBILITY
9 STAT.  MILES
RUNWAY VISUAL RANGE
WEATHER
CLOUDINESS
CLEAR SKY
TEMP / DEWPOINT
14 C / -1 C
ALTIMETER
30.17 IN HG
RECENT WEATHER
WIND SHEAR

METAR CYBW 192200Z AUTO 20003KT 9SM CLR 15/M02 A3018 RMK SLP251 DENSITY ALT 450 T=
METAR
LOCATION
CYBW - CALGARY/SPRINGBANK/AB
DATE - TIME
19 MARCH 2019 - 2200 UTC
WIND
200 TRUE @ 3  KNOTS
VISIBILITY
9 STAT.  MILES
RUNWAY VISUAL RANGE
WEATHER
CLOUDINESS
CLEAR SKY
TEMP / DEWPOINT
15 C / -2 C
ALTIMETER
30.18 IN HG
RECENT WEATHER
WIND SHEAR

METAR CYBW 192100Z AUTO 20004KT 9SM CLR 14/M04 A3019 RMK SLP254 DENSITY ALT 440 T=
METAR
LOCATION
CYBW - CALGARY/SPRINGBANK/AB
DATE - TIME
19 MARCH 2019 - 2100 UTC
WIND
200 TRUE @ 4  KNOTS
VISIBILITY
9 STAT.  MILES
RUNWAY VISUAL RANGE
WEATHER
CLOUDINESS
CLEAR SKY
TEMP / DEWPOINT
14 C / -4 C
ALTIMETER
30.19 IN HG
RECENT WEATHER
WIND SHEAR

TAF CYBW 191738Z 1918/2004 32008KT P6SM FEW200 SCT300 BECMG 1922/1924 VRB03KT RMK FCST BASED ON AUTO OBS. NXT FCST BY 200000Z=
TAF
LOCATION

CYBW - CALGARY/SPRINGBANK/AB
VALIDITY [UTC]
19 MAR - 1738 to
20 MAR - 0400
 
TIMES
[UTC]
WIND
[DEGREES TRUE]
VISIBILITY
[STAT. MILES]
WEATHER
CLOUDINESS
[FEET AGL]
 
19 MAR - 1800 to
20 MAR - 0400
320 @ 8 KNOTS
6+
NIL
20000 FEW
30000 SCATTERED
BECOMING
19 MAR - 2200 to
20 MAR - 0000
VARIABLE @ 3 KNOTS
 
 
 
REMARKS
THE FORECAST IS BASED ON AUTOMATIC OBSERVATIONS - THE NEXT FORECAST WILL BE ISSUED BY 0000 UTC ON DAY 20


Your time UTC time
Weather data provided by Environment Canada and NAV CANADA